sensor_id;sensor_type;location;lat;lon;timestamp;pressure;altitude;pressure_sealevel;temperature;humidity
9521;BME280;4798;41.574;23.734;2024-03-23T00:53:32;95498.50;;;7.38;71.10
9521;BME280;4798;41.574;23.734;2024-03-23T00:55:59;95496.59;;;7.34;71.55
9521;BME280;4798;41.574;23.734;2024-03-23T00:58:27;95495.28;;;7.36;71.45
9521;BME280;4798;41.574;23.734;2024-03-23T01:00:53;95495.75;;;7.28;71.89
9521;BME280;4798;41.574;23.734;2024-03-23T01:03:21;95497.81;;;7.26;71.62
9521;BME280;4798;41.574;23.734;2024-03-23T01:05:47;95487.78;;;7.23;70.66
9521;BME280;4798;41.574;23.734;2024-03-23T01:08:15;95480.50;;;7.14;71.21
9521;BME280;4798;41.574;23.734;2024-03-23T01:10:54;95490.81;;;7.15;71.85
9521;BME280;4798;41.574;23.734;2024-03-23T01:13:21;95489.22;;;7.14;71.39
9521;BME280;4798;41.574;23.734;2024-03-23T01:15:49;95490.19;;;7.08;71.71
9521;BME280;4798;41.574;23.734;2024-03-23T01:18:17;95489.63;;;7.06;72.38
9521;BME280;4798;41.574;23.734;2024-03-23T01:20:44;95491.50;;;7.06;72.29
9521;BME280;4798;41.574;23.734;2024-03-23T01:23:12;95486.63;;;6.97;72.39
9521;BME280;4798;41.574;23.734;2024-03-23T01:25:38;95476.81;;;6.93;73.19
9521;BME280;4798;41.574;23.734;2024-03-23T01:28:07;95480.28;;;6.98;72.12
9521;BME280;4798;41.574;23.734;2024-03-23T01:30:34;95475.81;;;6.99;72.38
9521;BME280;4798;41.574;23.734;2024-03-23T01:33:02;95475.53;;;6.95;72.31
9521;BME280;4798;41.574;23.734;2024-03-23T01:35:29;95478.38;;;6.94;72.34
9521;BME280;4798;41.574;23.734;2024-03-23T01:37:56;95482.41;;;6.80;72.93
9521;BME280;4798;41.574;23.734;2024-03-23T01:40:22;95478.25;;;6.84;73.25
9521;BME280;4798;41.574;23.734;2024-03-23T01:42:56;95455.44;;;6.73;73.04
9521;BME280;4798;41.574;23.734;2024-03-23T01:45:24;95477.69;;;6.82;73.09
9521;BME280;4798;41.574;23.734;2024-03-23T01:47:52;95478.50;;;6.82;73.47
9521;BME280;4798;41.574;23.734;2024-03-23T01:50:19;95474.84;;;6.67;74.72
9521;BME280;4798;41.574;23.734;2024-03-23T01:52:47;95487.28;;;6.55;76.77
9521;BME280;4798;41.574;23.734;2024-03-23T01:55:14;95485.66;;;6.20;79.20
9521;BME280;4798;41.574;23.734;2024-03-23T01:57:42;95485.03;;;6.13;80.40
9521;BME280;4798;41.574;23.734;2024-03-23T02:00:09;95483.91;;;6.09;82.64
9521;BME280;4798;41.574;23.734;2024-03-23T02:02:42;95481.41;;;6.03;86.11
9521;BME280;4798;41.574;23.734;2024-03-23T02:05:10;95485.19;;;6.07;85.76
9521;BME280;4798;41.574;23.734;2024-03-23T02:07:38;95391.16;;;5.86;81.64
9521;BME280;4798;41.574;23.734;2024-03-23T02:10:06;95485.59;;;6.49;82.11
9521;BME280;4798;41.574;23.734;2024-03-23T02:12:34;95468.72;;;6.45;81.42
9521;BME280;4798;41.574;23.734;2024-03-23T02:15:00;95489.59;;;6.51;82.13
9521;BME280;4798;41.574;23.734;2024-03-23T02:17:29;95481.78;;;6.56;81.74
9521;BME280;4798;41.574;23.734;2024-03-23T02:19:57;95479.63;;;6.70;79.41
9521;BME280;4798;41.574;23.734;2024-03-23T02:22:25;95489.78;;;6.78;78.11
9521;BME280;4798;41.574;23.734;2024-03-23T02:24:53;95485.19;;;6.73;78.67
9521;BME280;4798;41.574;23.734;2024-03-23T02:27:20;95486.22;;;6.89;76.65
9521;BME280;4798;41.574;23.734;2024-03-23T02:29:47;95291.41;;;5.67;76.31
9521;BME280;4798;41.574;23.734;2024-03-23T02:32:14;95479.66;;;6.91;75.66
9521;BME280;4798;41.574;23.734;2024-03-23T02:34:41;95482.16;;;6.98;74.75
9521;BME280;4798;41.574;23.734;2024-03-23T02:37:10;95474.06;;;7.04;74.95
9521;BME280;4798;41.574;23.734;2024-03-23T02:39:37;95481.78;;;7.11;74.07
9521;BME280;4798;41.574;23.734;2024-03-23T02:42:06;95476.63;;;6.99;74.47
9521;BME280;4798;41.574;23.734;2024-03-23T02:44:33;95460.06;;;6.82;74.94
9521;BME280;4798;41.574;23.734;2024-03-23T02:47:00;95477.91;;;6.97;74.50
9521;BME280;4798;41.574;23.734;2024-03-23T02:49:27;95474.25;;;6.81;74.57
9521;BME280;4798;41.574;23.734;2024-03-23T02:51:54;95470.47;;;6.94;73.50
9521;BME280;4798;41.574;23.734;2024-03-23T02:54:21;95474.09;;;6.88;73.65
9521;BME280;4798;41.574;23.734;2024-03-23T02:56:48;95473.38;;;6.43;76.85
9521;BME280;4798;41.574;23.734;2024-03-23T02:59:16;95471.72;;;6.36;77.34
9521;BME280;4798;41.574;23.734;2024-03-23T03:01:44;95436.00;;;6.24;77.56
9521;BME280;4798;41.574;23.734;2024-03-23T03:04:10;95460.72;;;6.39;77.64
9521;BME280;4798;41.574;23.734;2024-03-23T03:06:38;95467.81;;;6.39;78.38
9521;BME280;4798;41.574;23.734;2024-03-23T03:09:05;95469.75;;;6.60;76.99
9521;BME280;4798;41.574;23.734;2024-03-23T03:11:32;95471.97;;;6.52;78.32
9521;BME280;4798;41.574;23.734;2024-03-23T03:13:59;95468.22;;;6.64;76.57
9521;BME280;4798;41.574;23.734;2024-03-23T03:16:28;95471.97;;;6.52;77.64
9521;BME280;4798;41.574;23.734;2024-03-23T03:18:55;95475.00;;;6.60;76.32
9521;BME280;4798;41.574;23.734;2024-03-23T03:21:22;95466.00;;;6.73;75.18
9521;BME280;4798;41.574;23.734;2024-03-23T03:23:49;95468.03;;;6.71;75.72
9521;BME280;4798;41.574;23.734;2024-03-23T03:26:17;95474.38;;;6.70;74.38
9521;BME280;4798;41.574;23.734;2024-03-23T03:28:43;95473.09;;;6.72;74.25
9521;BME280;4798;41.574;23.734;2024-03-23T03:31:14;95437.91;;;6.45;74.72
9521;BME280;4798;41.574;23.734;2024-03-23T03:33:42;95477.13;;;6.63;75.22
9521;BME280;4798;41.574;23.734;2024-03-23T03:36:10;95464.22;;;6.62;74.83
9521;BME280;4798;41.574;23.734;2024-03-23T03:38:36;95474.38;;;6.70;75.17
9521;BME280;4798;41.574;23.734;2024-03-23T03:41:04;95475.31;;;6.64;74.16
9521;BME280;4798;41.574;23.734;2024-03-23T03:43:32;95434.53;;;6.33;74.49
9521;BME280;4798;41.574;23.734;2024-03-23T03:46:00;95480.19;;;6.72;73.67
9521;BME280;4798;41.574;23.734;2024-03-23T03:48:27;95483.28;;;6.69;72.81
9521;BME280;4798;41.574;23.734;2024-03-23T03:50:56;95482.41;;;6.63;73.23
9521;BME280;4798;41.574;23.734;2024-03-23T03:53:22;95472.75;;;6.69;73.73
9521;BME280;4798;41.574;23.734;2024-03-23T03:55:50;95473.56;;;6.69;72.89
9521;BME280;4798;41.574;23.734;2024-03-23T03:58:16;95477.81;;;6.70;72.68
9521;BME280;4798;41.574;23.734;2024-03-23T04:00:44;95481.63;;;6.63;72.75
9521;BME280;4798;41.574;23.734;2024-03-23T04:03:10;95470.59;;;6.66;71.95
9521;BME280;4798;41.574;23.734;2024-03-23T04:05:38;95479.09;;;6.68;72.20
9521;BME280;4798;41.574;23.734;2024-03-23T04:08:07;95487.94;;;6.62;71.87
9521;BME280;4798;41.574;23.734;2024-03-23T04:10:34;95485.84;;;6.64;72.13
9521;BME280;4798;41.574;23.734;2024-03-23T04:13:01;95422.88;;;5.96;74.22
9521;BME280;4798;41.574;23.734;2024-03-23T04:15:30;95490.06;;;6.48;72.89
9521;BME280;4798;41.574;23.734;2024-03-23T04:17:57;95474.50;;;6.13;73.94
9521;BME280;4798;41.574;23.734;2024-03-23T04:20:24;95484.34;;;5.78;77.90
9521;BME280;4798;41.574;23.734;2024-03-23T04:22:51;95490.81;;;5.99;77.34
9521;BME280;4798;41.574;23.734;2024-03-23T04:25:21;95498.66;;;6.10;76.59
9521;BME280;4798;41.574;23.734;2024-03-23T04:27:47;95451.13;;;5.44;78.42
9521;BME280;4798;41.574;23.734;2024-03-23T04:30:15;95483.41;;;5.56;79.50
9521;BME280;4798;41.574;23.734;2024-03-23T04:32:42;95503.38;;;5.68;79.80
9521;BME280;4798;41.574;23.734;2024-03-23T04:35:09;95443.03;;;5.34;79.96
9521;BME280;4798;41.574;23.734;2024-03-23T04:37:36;95509.25;;;5.87;78.06
9521;BME280;4798;41.574;23.734;2024-03-23T04:40:07;95477.41;;;5.44;79.97
9521;BME280;4798;41.574;23.734;2024-03-23T04:42:36;95462.84;;;5.01;81.52
9521;BME280;4798;41.574;23.734;2024-03-23T04:45:04;95519.91;;;5.41;81.82
9521;BME280;4798;41.574;23.734;2024-03-23T04:47:33;95521.19;;;5.03;83.60
9521;BME280;4798;41.574;23.734;2024-03-23T04:50:02;95517.66;;;4.86;86.06
9521;BME280;4798;41.574;23.734;2024-03-23T04:52:32;95493.59;;;4.78;86.24
9521;BME280;4798;41.574;23.734;2024-03-23T04:55:03;95526.31;;;5.22;83.88
9521;BME280;4798;41.574;23.734;2024-03-23T04:57:30;95529.75;;;5.34;82.27
9521;BME280;4798;41.574;23.734;2024-03-23T04:59:58;95537.97;;;5.49;81.52
9521;BME280;4798;41.574;23.734;2024-03-23T05:02:26;95526.44;;;5.38;82.16
9521;BME280;4798;41.574;23.734;2024-03-23T05:04:53;95512.41;;;5.21;83.19
9521;BME280;4798;41.574;23.734;2024-03-23T05:07:20;95531.34;;;5.35;82.38
9521;BME280;4798;41.574;23.734;2024-03-23T05:09:47;95535.56;;;5.36;83.26
9521;BME280;4798;41.574;23.734;2024-03-23T05:12:14;95512.84;;;5.30;83.09
9521;BME280;4798;41.574;23.734;2024-03-23T05:14:41;95530.75;;;5.44;83.59
9521;BME280;4798;41.574;23.734;2024-03-23T05:17:10;95527.91;;;5.46;83.33
9521;BME280;4798;41.574;23.734;2024-03-23T05:19:36;95521.59;;;5.58;83.20
9521;BME280;4798;41.574;23.734;2024-03-23T05:22:04;95524.16;;;5.70;83.07
9521;BME280;4798;41.574;23.734;2024-03-23T05:24:30;95519.44;;;5.84;82.84
9521;BME280;4798;41.574;23.734;2024-03-23T05:26:58;95525.31;;;5.74;81.90
9521;BME280;4798;41.574;23.734;2024-03-23T05:29:25;95522.19;;;5.89;80.86
9521;BME280;4798;41.574;23.734;2024-03-23T05:31:53;95496.69;;;5.89;82.32
9521;BME280;4798;41.574;23.734;2024-03-23T05:34:23;95523.38;;;6.09;82.83
9521;BME280;4798;41.574;23.734;2024-03-23T05:36:51;95523.88;;;6.23;80.89
9521;BME280;4798;41.574;23.734;2024-03-23T05:39:18;95530.41;;;5.92;83.77
9521;BME280;4798;41.574;23.734;2024-03-23T05:41:48;95514.91;;;6.07;83.12
9521;BME280;4798;41.574;23.734;2024-03-23T05:44:14;95488.09;;;5.94;81.94
9521;BME280;4798;41.574;23.734;2024-03-23T05:46:42;95520.53;;;6.27;81.10
9521;BME280;4798;41.574;23.734;2024-03-23T05:49:08;95504.81;;;6.32;79.92
9521;BME280;4798;41.574;23.734;2024-03-23T05:51:38;95514.66;;;6.54;79.22
9521;BME280;4798;41.574;23.734;2024-03-23T05:54:04;95506.59;;;6.44;79.98
9521;BME280;4798;41.574;23.734;2024-03-23T05:56:32;95514.16;;;6.73;78.82
9521;BME280;4798;41.574;23.734;2024-03-23T05:58:58;95507.22;;;7.00;77.80
9521;BME280;4798;41.574;23.734;2024-03-23T06:01:26;95517.59;;;7.29;75.64
9521;BME280;4798;41.574;23.734;2024-03-23T06:03:54;95516.28;;;7.48;75.38
9521;BME280;4798;41.574;23.734;2024-03-23T06:06:22;95505.84;;;8.01;74.67
9521;BME280;4798;41.574;23.734;2024-03-23T06:08:50;95503.66;;;8.78;70.52
9521;BME280;4798;41.574;23.734;2024-03-23T06:11:17;95486.09;;;8.62;70.24
9521;BME280;4798;41.574;23.734;2024-03-23T06:13:44;95500.34;;;8.61;69.36
9521;BME280;4798;41.574;23.734;2024-03-23T06:16:11;95494.88;;;9.10;68.89
9521;BME280;4798;41.574;23.734;2024-03-23T06:18:39;95498.31;;;8.73;68.51
9521;BME280;4798;41.574;23.734;2024-03-23T06:21:13;95440.34;;;8.57;68.07
9521;BME280;4798;41.574;23.734;2024-03-23T06:23:40;95491.41;;;9.51;66.81
9521;BME280;4798;41.574;23.734;2024-03-23T06:26:09;95492.00;;;9.63;65.31
9521;BME280;4798;41.574;23.734;2024-03-23T06:28:36;95487.16;;;10.17;63.01
9521;BME280;4798;41.574;23.734;2024-03-23T06:31:08;95488.53;;;10.35;62.04
9521;BME280;4798;41.574;23.734;2024-03-23T06:33:35;95485.34;;;10.73;61.66
9521;BME280;4798;41.574;23.734;2024-03-23T06:36:03;95479.25;;;10.98;59.76
9521;BME280;4798;41.574;23.734;2024-03-23T06:38:30;95489.06;;;10.57;60.53
9521;BME280;4798;41.574;23.734;2024-03-23T06:40:57;95444.78;;;10.98;59.83
9521;BME280;4798;41.574;23.734;2024-03-23T06:43:25;95480.91;;;11.68;58.22
9521;BME280;4798;41.574;23.734;2024-03-23T06:45:53;95477.50;;;12.21;57.68
9521;BME280;4798;41.574;23.734;2024-03-23T06:48:23;95479.69;;;12.09;56.32
9521;BME280;4798;41.574;23.734;2024-03-23T06:50:55;95452.63;;;12.02;55.43
9521;BME280;4798;41.574;23.734;2024-03-23T06:53:24;95443.97;;;12.25;55.02
9521;BME280;4798;41.574;23.734;2024-03-23T06:55:51;95415.53;;;11.87;54.48
9521;BME280;4798;41.574;23.734;2024-03-23T06:58:19;95469.13;;;11.99;56.17
9521;BME280;4798;41.574;23.734;2024-03-23T07:00:48;95423.31;;;12.17;54.83
9521;BME280;4798;41.574;23.734;2024-03-23T07:03:16;95459.94;;;12.25;54.72
9521;BME280;4798;41.574;23.734;2024-03-23T07:05:42;95418.88;;;12.02;54.58
9521;BME280;4798;41.574;23.734;2024-03-23T07:08:10;95436.22;;;12.34;54.14
9521;BME280;4798;41.574;23.734;2024-03-23T07:10:39;95447.38;;;12.69;53.83
9521;BME280;4798;41.574;23.734;2024-03-23T07:13:06;95454.25;;;13.04;53.71
9521;BME280;4798;41.574;23.734;2024-03-23T07:15:33;95451.53;;;13.38;51.66
9521;BME280;4798;41.574;23.734;2024-03-23T07:18:01;95441.59;;;13.44;54.57
9521;BME280;4798;41.574;23.734;2024-03-23T07:20:29;95454.75;;;13.35;51.39
9521;BME280;4798;41.574;23.734;2024-03-23T07:22:57;95455.50;;;13.41;51.52
9521;BME280;4798;41.574;23.734;2024-03-23T07:25:24;95345.03;;;12.91;50.92
9521;BME280;4798;41.574;23.734;2024-03-23T07:27:53;95455.47;;;13.88;50.97
9521;BME280;4798;41.574;23.734;2024-03-23T07:30:20;95450.44;;;14.05;49.71
9521;BME280;4798;41.574;23.734;2024-03-23T07:32:47;95352.81;;;13.11;50.31
9521;BME280;4798;41.574;23.734;2024-03-23T07:35:16;95442.84;;;14.36;49.36
9521;BME280;4798;41.574;23.734;2024-03-23T07:37:43;95433.16;;;14.40;48.91
9521;BME280;4798;41.574;23.734;2024-03-23T07:40:11;95427.72;;;14.82;48.55
9521;BME280;4798;41.574;23.734;2024-03-23T07:42:38;95436.91;;;14.57;49.16
9521;BME280;4798;41.574;23.734;2024-03-23T07:45:06;95432.91;;;15.19;48.78
9521;BME280;4798;41.574;23.734;2024-03-23T07:47:33;95434.38;;;15.12;48.09
9521;BME280;4798;41.574;23.734;2024-03-23T07:50:00;95434.44;;;15.80;48.07
9521;BME280;4798;41.574;23.734;2024-03-23T07:52:29;95420.09;;;16.12;46.38
9521;BME280;4798;41.574;23.734;2024-03-23T07:54:57;95394.25;;;15.85;47.80
9521;BME280;4798;41.574;23.734;2024-03-23T07:57:24;95416.66;;;16.11;47.89
9521;BME280;4798;41.574;23.734;2024-03-23T07:59:51;95406.44;;;15.77;46.57
9521;BME280;4798;41.574;23.734;2024-03-23T08:02:18;95424.22;;;15.41;46.78
9521;BME280;4798;41.574;23.734;2024-03-23T08:04:45;95415.44;;;15.68;46.18
9521;BME280;4798;41.574;23.734;2024-03-23T08:07:15;95402.88;;;16.54;44.75
9521;BME280;4798;41.574;23.734;2024-03-23T08:09:44;95405.53;;;16.54;44.89
9521;BME280;4798;41.574;23.734;2024-03-23T08:12:10;95391.69;;;16.16;45.87
9521;BME280;4798;41.574;23.734;2024-03-23T08:14:40;95404.72;;;15.95;46.57
9521;BME280;4798;41.574;23.734;2024-03-23T08:17:07;95395.69;;;16.85;45.84
9521;BME280;4798;41.574;23.734;2024-03-23T08:19:35;95389.16;;;17.39;43.06
9521;BME280;4798;41.574;23.734;2024-03-23T08:22:01;95382.72;;;18.05;43.86
9521;BME280;4798;41.574;23.734;2024-03-23T08:24:29;95328.75;;;18.15;42.65
9521;BME280;4798;41.574;23.734;2024-03-23T08:26:57;95374.81;;;18.42;41.19
9521;BME280;4798;41.574;23.734;2024-03-23T08:29:25;95376.91;;;18.28;41.26
9521;BME280;4798;41.574;23.734;2024-03-23T08:31:51;95275.22;;;18.44;40.07
9521;BME280;4798;41.574;23.734;2024-03-23T08:34:19;95373.50;;;19.00;40.35
9521;BME280;4798;41.574;23.734;2024-03-23T08:36:46;95344.38;;;18.47;40.12
9521;BME280;4798;41.574;23.734;2024-03-23T08:39:13;95342.16;;;18.32;40.37
9521;BME280;4798;41.574;23.734;2024-03-23T08:41:40;95351.47;;;18.43;39.97
9521;BME280;4798;41.574;23.734;2024-03-23T08:44:12;95363.00;;;19.16;39.09
9521;BME280;4798;41.574;23.734;2024-03-23T08:46:38;95347.78;;;19.37;39.23
9521;BME280;4798;41.574;23.734;2024-03-23T08:49:06;95337.91;;;19.99;38.94
9521;BME280;4798;41.574;23.734;2024-03-23T08:51:32;95329.69;;;20.25;37.54
9521;BME280;4798;41.574;23.734;2024-03-23T08:54:00;95325.03;;;20.67;37.04
9521;BME280;4798;41.574;23.734;2024-03-23T08:56:26;95238.53;;;20.36;37.90
9521;BME280;4798;41.574;23.734;2024-03-23T08:58:54;95318.94;;;20.70;37.23
9521;BME280;4798;41.574;23.734;2024-03-23T09:01:23;95312.72;;;20.04;37.45
9521;BME280;4798;41.574;23.734;2024-03-23T09:03:50;95297.09;;;19.77;38.53
9521;BME280;4798;41.574;23.734;2024-03-23T09:06:17;95296.97;;;20.68;41.38
9521;BME280;4798;41.574;23.734;2024-03-23T09:08:44;95287.22;;;22.08;37.19
9521;BME280;4798;41.574;23.734;2024-03-23T09:11:12;95270.69;;;22.81;36.30
9521;BME280;4798;41.574;23.734;2024-03-23T09:13:40;95272.25;;;22.11;34.88
9521;BME280;4798;41.574;23.734;2024-03-23T09:16:07;95280.19;;;21.56;37.97
9521;BME280;4798;41.574;23.734;2024-03-23T09:18:37;95277.88;;;20.61;39.17
9521;BME280;4798;41.574;23.734;2024-03-23T09:21:09;95269.31;;;21.52;42.17
9521;BME280;4798;41.574;23.734;2024-03-23T09:23:39;95262.91;;;22.36;36.16
9521;BME280;4798;41.574;23.734;2024-03-23T09:26:05;95260.53;;;21.67;34.97
9521;BME280;4798;41.574;23.734;2024-03-23T09:28:33;95252.13;;;21.44;36.52
9521;BME280;4798;41.574;23.734;2024-03-23T09:31:02;95247.47;;;22.21;37.09
9521;BME280;4798;41.574;23.734;2024-03-23T09:33:30;95249.34;;;21.93;35.03
9521;BME280;4798;41.574;23.734;2024-03-23T09:35:58;95241.06;;;22.41;35.28
9521;BME280;4798;41.574;23.734;2024-03-23T09:38:30;95238.91;;;22.19;35.89
9521;BME280;4798;41.574;23.734;2024-03-23T09:40:57;95232.53;;;22.55;35.51
9521;BME280;4798;41.574;23.734;2024-03-23T09:43:25;95239.78;;;21.19;35.82
9521;BME280;4798;41.574;23.734;2024-03-23T09:45:52;95167.84;;;22.15;35.66
9521;BME280;4798;41.574;23.734;2024-03-23T09:48:20;95222.97;;;23.20;33.84
9521;BME280;4798;41.574;23.734;2024-03-23T09:50:46;95217.25;;;23.56;34.19
9521;BME280;4798;41.574;23.734;2024-03-23T09:53:16;95194.78;;;23.36;32.28
9521;BME280;4798;41.574;23.734;2024-03-23T09:55:44;95160.63;;;25.15;31.74
9521;BME280;4798;41.574;23.734;2024-03-23T09:58:13;95197.16;;;26.07;31.28
9521;BME280;4798;41.574;23.734;2024-03-23T10:00:39;95191.38;;;25.00;30.62
9521;BME280;4798;41.574;23.734;2024-03-23T10:03:07;95187.94;;;25.52;30.60
9521;BME280;4798;41.574;23.734;2024-03-23T10:05:36;95183.22;;;25.49;30.22
9521;BME280;4798;41.574;23.734;2024-03-23T10:08:18;95159.84;;;25.14;30.47
9521;BME280;4798;41.574;23.734;2024-03-23T10:10:46;95173.03;;;25.68;29.86
9521;BME280;4798;41.574;23.734;2024-03-23T10:13:24;95168.13;;;25.25;29.14
9521;BME280;4798;41.574;23.734;2024-03-23T10:15:55;95171.13;;;24.26;29.16
9521;BME280;4798;41.574;23.734;2024-03-23T10:18:24;95091.66;;;25.16;28.26
9521;BME280;4798;41.574;23.734;2024-03-23T10:21:06;95146.56;;;25.62;28.62
9521;BME280;4798;41.574;23.734;2024-03-23T10:23:36;95175.91;;;26.12;28.84
9521;BME280;4798;41.574;23.734;2024-03-23T10:26:16;95158.78;;;25.22;28.71
9521;BME280;4798;41.574;23.734;2024-03-23T10:28:55;95150.91;;;24.65;29.63
9521;BME280;4798;41.574;23.734;2024-03-23T10:31:24;95145.34;;;25.30;30.65
9521;BME280;4798;41.574;23.734;2024-03-23T10:33:51;95130.34;;;25.39;28.55
9521;BME280;4798;41.574;23.734;2024-03-23T10:36:21;95124.47;;;25.63;28.87
9521;BME280;4798;41.574;23.734;2024-03-23T10:38:51;95123.34;;;25.08;28.43
9521;BME280;4798;41.574;23.734;2024-03-23T10:41:18;95121.84;;;26.04;29.04
9521;BME280;4798;41.574;23.734;2024-03-23T10:43:48;95076.81;;;25.06;29.65
9521;BME280;4798;41.574;23.734;2024-03-23T10:46:15;95110.94;;;25.37;29.44
9521;BME280;4798;41.574;23.734;2024-03-23T10:48:44;95110.44;;;26.21;28.27
9521;BME280;4798;41.574;23.734;2024-03-23T10:51:11;95088.03;;;26.82;27.23
9521;BME280;4798;41.574;23.734;2024-03-23T10:53:38;95095.34;;;25.94;29.10
9521;BME280;4798;41.574;23.734;2024-03-23T10:56:07;95084.34;;;26.16;27.97
9521;BME280;4798;41.574;23.734;2024-03-23T10:58:38;95079.09;;;26.78;27.26
9521;BME280;4798;41.574;23.734;2024-03-23T11:01:05;95084.94;;;27.41;27.41
9521;BME280;4798;41.574;23.734;2024-03-23T11:03:34;95063.38;;;27.12;26.79
9521;BME280;4798;41.574;23.734;2024-03-23T11:06:03;95069.91;;;26.96;25.94
9521;BME280;4798;41.574;23.734;2024-03-23T11:08:32;95029.16;;;28.57;25.30
9521;BME280;4798;41.574;23.734;2024-03-23T11:11:17;95058.34;;;29.06;23.99
9521;BME280;4798;41.574;23.734;2024-03-23T11:13:48;95048.63;;;28.27;27.66
9521;BME280;4798;41.574;23.734;2024-03-23T11:16:16;95049.47;;;27.27;27.74
9521;BME280;4798;41.574;23.734;2024-03-23T11:18:44;95033.06;;;28.80;25.29
9521;BME280;4798;41.574;23.734;2024-03-23T11:21:10;95039.28;;;28.35;23.93
9521;BME280;4798;41.574;23.734;2024-03-23T11:23:38;95036.34;;;27.47;25.09
9521;BME280;4798;41.574;23.734;2024-03-23T11:26:08;95033.34;;;27.80;24.95
9521;BME280;4798;41.574;23.734;2024-03-23T11:28:37;95022.44;;;29.18;23.96
9521;BME280;4798;41.574;23.734;2024-03-23T11:31:09;95002.66;;;28.78;24.00
9521;BME280;4798;41.574;23.734;2024-03-23T11:33:38;95014.72;;;28.99;23.81
9521;BME280;4798;41.574;23.734;2024-03-23T11:36:05;95008.25;;;30.24;23.22
9521;BME280;4798;41.574;23.734;2024-03-23T11:38:36;94990.09;;;29.23;22.21
9521;BME280;4798;41.574;23.734;2024-03-23T11:41:03;94998.28;;;29.20;22.58
9521;BME280;4798;41.574;23.734;2024-03-23T11:43:31;94987.88;;;28.16;23.50
9521;BME280;4798;41.574;23.734;2024-03-23T11:45:59;94993.22;;;29.11;21.74
9521;BME280;4798;41.574;23.734;2024-03-23T11:48:29;94869.53;;;27.82;22.86
9521;BME280;4798;41.574;23.734;2024-03-23T11:50:56;94974.59;;;28.88;22.49
9521;BME280;4798;41.574;23.734;2024-03-23T11:53:25;94967.97;;;27.91;22.52
9521;BME280;4798;41.574;23.734;2024-03-23T11:55:54;94960.25;;;28.35;22.41
9521;BME280;4798;41.574;23.734;2024-03-23T11:58:23;94976.97;;;28.16;23.34
9521;BME280;4798;41.574;23.734;2024-03-23T12:00:50;94974.63;;;28.39;23.34
9521;BME280;4798;41.574;23.734;2024-03-23T12:03:20;94963.72;;;27.97;21.59
9521;BME280;4798;41.574;23.734;2024-03-23T12:05:49;94952.25;;;27.17;22.41
9521;BME280;4798;41.574;23.734;2024-03-23T12:08:21;94956.88;;;26.41;22.86
9521;BME280;4798;41.574;23.734;2024-03-23T12:10:49;94940.34;;;27.78;21.99
9521;BME280;4798;41.574;23.734;2024-03-23T12:13:21;94943.75;;;28.99;21.64
9521;BME280;4798;41.574;23.734;2024-03-23T12:15:50;94941.09;;;27.68;22.57
9521;BME280;4798;41.574;23.734;2024-03-23T12:18:17;94932.19;;;27.96;21.40
9521;BME280;4798;41.574;23.734;2024-03-23T12:20:46;94935.31;;;26.73;22.49
9521;BME280;4798;41.574;23.734;2024-03-23T12:23:13;94928.28;;;26.72;23.21
9521;BME280;4798;41.574;23.734;2024-03-23T12:25:40;94932.16;;;26.64;23.87
9521;BME280;4798;41.574;23.734;2024-03-23T12:28:07;94922.66;;;27.01;22.53
9521;BME280;4798;41.574;23.734;2024-03-23T12:30:35;94930.28;;;26.13;22.86
9521;BME280;4798;41.574;23.734;2024-03-23T12:33:02;94925.34;;;26.29;21.46
9521;BME280;4798;41.574;23.734;2024-03-23T12:35:30;94874.91;;;27.22;21.81
9521;BME280;4798;41.574;23.734;2024-03-23T12:37:58;94907.28;;;27.80;21.53
9521;BME280;4798;41.574;23.734;2024-03-23T12:40:25;94893.59;;;28.47;22.87
9521;BME280;4798;41.574;23.734;2024-03-23T12:42:52;94902.97;;;28.31;22.38
9521;BME280;4798;41.574;23.734;2024-03-23T12:45:20;94878.06;;;27.55;22.60
9521;BME280;4798;41.574;23.734;2024-03-23T12:47:46;94879.66;;;27.92;21.81
9521;BME280;4798;41.574;23.734;2024-03-23T12:50:14;94889.38;;;28.24;21.49
9521;BME280;4798;41.574;23.734;2024-03-23T12:52:40;94888.91;;;28.68;20.75
9521;BME280;4798;41.574;23.734;2024-03-23T12:55:10;94883.00;;;28.87;21.73
9521;BME280;4798;41.574;23.734;2024-03-23T12:57:36;94892.69;;;28.95;21.85
9521;BME280;4798;41.574;23.734;2024-03-23T13:00:05;94895.22;;;27.59;21.67
9521;BME280;4798;41.574;23.734;2024-03-23T13:02:32;94888.41;;;26.93;22.10
9521;BME280;4798;41.574;23.734;2024-03-23T13:05:01;94880.34;;;27.25;21.12
9521;BME280;4798;41.574;23.734;2024-03-23T13:07:28;94880.41;;;27.46;20.72
9521;BME280;4798;41.574;23.734;2024-03-23T13:09:56;94876.13;;;27.81;21.41
9521;BME280;4798;41.574;23.734;2024-03-23T13:12:24;94871.50;;;28.02;21.33
9521;BME280;4798;41.574;23.734;2024-03-23T13:14:51;94821.25;;;28.21;21.20
9521;BME280;4798;41.574;23.734;2024-03-23T13:17:18;94821.97;;;28.43;21.98
9521;BME280;4798;41.574;23.734;2024-03-23T13:19:46;94783.19;;;27.57;21.60
9521;BME280;4798;41.574;23.734;2024-03-23T13:22:12;94857.09;;;28.09;20.90
9521;BME280;4798;41.574;23.734;2024-03-23T13:24:42;94862.81;;;27.08;23.01
9521;BME280;4798;41.574;23.734;2024-03-23T13:27:09;94850.84;;;27.41;20.97
9521;BME280;4798;41.574;23.734;2024-03-23T13:29:38;94852.03;;;27.54;21.47
9521;BME280;4798;41.574;23.734;2024-03-23T13:32:05;94788.53;;;26.87;20.96
9521;BME280;4798;41.574;23.734;2024-03-23T13:34:33;94846.09;;;27.06;21.72
9521;BME280;4798;41.574;23.734;2024-03-23T13:37:01;94849.88;;;26.74;21.65
9521;BME280;4798;41.574;23.734;2024-03-23T13:39:30;94846.44;;;26.12;22.39
9521;BME280;4798;41.574;23.734;2024-03-23T13:41:57;94850.19;;;25.97;21.92
9521;BME280;4798;41.574;23.734;2024-03-23T13:44:24;94858.50;;;26.14;22.47
9521;BME280;4798;41.574;23.734;2024-03-23T13:46:52;94843.84;;;25.78;21.47
9521;BME280;4798;41.574;23.734;2024-03-23T13:49:27;94843.19;;;25.92;21.48
9521;BME280;4798;41.574;23.734;2024-03-23T13:51:55;94840.34;;;26.32;21.91
9521;BME280;4798;41.574;23.734;2024-03-23T13:54:24;94846.91;;;24.89;22.57
9521;BME280;4798;41.574;23.734;2024-03-23T13:56:51;94836.56;;;25.42;22.62
9521;BME280;4798;41.574;23.734;2024-03-23T13:59:18;94839.72;;;25.48;22.14
9521;BME280;4798;41.574;23.734;2024-03-23T14:01:45;94817.13;;;25.84;22.05
9521;BME280;4798;41.574;23.734;2024-03-23T14:04:14;94838.63;;;26.03;21.24
9521;BME280;4798;41.574;23.734;2024-03-23T14:06:42;94842.88;;;25.50;22.24
9521;BME280;4798;41.574;23.734;2024-03-23T14:09:11;94796.53;;;25.29;22.51
9521;BME280;4798;41.574;23.734;2024-03-23T14:11:38;94819.69;;;25.59;21.64